sensor_id;sensor_type;location;lat;lon;timestamp;temperature;humidity
5023;DHT22;2530;47.990;7.866;2023-07-20T00:01:03;21.40;99.90
5023;DHT22;2530;47.990;7.866;2023-07-20T00:03:29;21.30;99.90
5023;DHT22;2530;47.990;7.866;2023-07-20T00:05:54;21.20;99.90
5023;DHT22;2530;47.990;7.866;2023-07-20T00:08:20;21.10;99.90
5023;DHT22;2530;47.990;7.866;2023-07-20T00:10:45;21.00;99.90
5023;DHT22;2530;47.990;7.866;2023-07-20T00:13:11;21.00;99.90
5023;DHT22;2530;47.990;7.866;2023-07-20T00:15:37;21.00;99.90
5023;DHT22;2530;47.990;7.866;2023-07-20T00:18:04;21.10;99.90
5023;DHT22;2530;47.990;7.866;2023-07-20T00:20:29;21.20;99.90
5023;DHT22;2530;47.990;7.866;2023-07-20T00:22:55;21.20;99.90
5023;DHT22;2530;47.990;7.866;2023-07-20T00:25:23;21.20;99.90
5023;DHT22;2530;47.990;7.866;2023-07-20T00:27:49;21.10;99.90
5023;DHT22;2530;47.990;7.866;2023-07-20T00:30:14;21.00;99.90
5023;DHT22;2530;47.990;7.866;2023-07-20T00:32:41;20.90;99.90
5023;DHT22;2530;47.990;7.866;2023-07-20T00:35:07;20.90;99.90
5023;DHT22;2530;47.990;7.866;2023-07-20T00:37:32;20.90;99.90
5023;DHT22;2530;47.990;7.866;2023-07-20T00:39:58;20.80;99.90
5023;DHT22;2530;47.990;7.866;2023-07-20T00:42:23;20.80;99.90
5023;DHT22;2530;47.990;7.866;2023-07-20T00:44:49;20.80;99.90
5023;DHT22;2530;47.990;7.866;2023-07-20T00:47:15;20.80;99.90
5023;DHT22;2530;47.990;7.866;2023-07-20T00:49:40;20.90;99.90
5023;DHT22;2530;47.990;7.866;2023-07-20T00:52:07;21.00;99.90
5023;DHT22;2530;47.990;7.866;2023-07-20T00:54:33;20.80;99.90
5023;DHT22;2530;47.990;7.866;2023-07-20T00:57:00;20.70;99.90
5023;DHT22;2530;47.990;7.866;2023-07-20T00:59:27;20.70;99.90
5023;DHT22;2530;47.990;7.866;2023-07-20T01:01:52;20.70;99.90
5023;DHT22;2530;47.990;7.866;2023-07-20T01:04:18;20.90;99.90
5023;DHT22;2530;47.990;7.866;2023-07-20T01:07:01;20.90;99.90
5023;DHT22;2530;47.990;7.866;2023-07-20T01:09:44;20.90;99.90
5023;DHT22;2530;47.990;7.866;2023-07-20T01:12:18;20.90;99.90
5023;DHT22;2530;47.990;7.866;2023-07-20T01:14:48;20.90;99.90
5023;DHT22;2530;47.990;7.866;2023-07-20T01:17:14;20.80;99.90
5023;DHT22;2530;47.990;7.866;2023-07-20T01:19:39;20.80;99.90
5023;DHT22;2530;47.990;7.866;2023-07-20T01:33:20;20.50;99.90
5023;DHT22;2530;47.990;7.866;2023-07-20T01:35:57;20.40;99.90
5023;DHT22;2530;47.990;7.866;2023-07-20T01:38:24;20.20;99.90
5023;DHT22;2530;47.990;7.866;2023-07-20T01:40:50;20.30;99.90
5023;DHT22;2530;47.990;7.866;2023-07-20T01:43:16;20.30;99.90
5023;DHT22;2530;47.990;7.866;2023-07-20T01:45:41;20.20;99.90
5023;DHT22;2530;47.990;7.866;2023-07-20T01:48:07;19.80;99.90
5023;DHT22;2530;47.990;7.866;2023-07-20T01:50:33;20.10;99.90
5023;DHT22;2530;47.990;7.866;2023-07-20T01:53:00;20.10;99.90
5023;DHT22;2530;47.990;7.866;2023-07-20T01:55:26;20.00;99.90
5023;DHT22;2530;47.990;7.866;2023-07-20T01:57:51;20.60;99.90
5023;DHT22;2530;47.990;7.866;2023-07-20T02:00:17;20.20;99.90
5023;DHT22;2530;47.990;7.866;2023-07-20T02:02:46;20.00;99.90
5023;DHT22;2530;47.990;7.866;2023-07-20T02:05:12;20.00;99.90
5023;DHT22;2530;47.990;7.866;2023-07-20T02:07:37;19.90;99.90
5023;DHT22;2530;47.990;7.866;2023-07-20T02:10:03;20.10;99.90
5023;DHT22;2530;47.990;7.866;2023-07-20T02:12:29;19.70;99.90
5023;DHT22;2530;47.990;7.866;2023-07-20T02:14:54;19.90;99.90
5023;DHT22;2530;47.990;7.866;2023-07-20T02:17:20;19.70;99.90
5023;DHT22;2530;47.990;7.866;2023-07-20T02:19:45;19.60;99.90
5023;DHT22;2530;47.990;7.866;2023-07-20T02:22:12;19.70;99.90
5023;DHT22;2530;47.990;7.866;2023-07-20T02:24:37;19.40;99.90
5023;DHT22;2530;47.990;7.866;2023-07-20T02:27:03;19.50;99.90
5023;DHT22;2530;47.990;7.866;2023-07-20T02:29:29;19.50;99.90
5023;DHT22;2530;47.990;7.866;2023-07-20T02:31:55;19.50;99.90
5023;DHT22;2530;47.990;7.866;2023-07-20T02:34:20;19.30;99.90
5023;DHT22;2530;47.990;7.866;2023-07-20T02:36:46;19.30;99.90
5023;DHT22;2530;47.990;7.866;2023-07-20T02:39:11;19.20;99.90
5023;DHT22;2530;47.990;7.866;2023-07-20T02:41:37;19.30;99.90
5023;DHT22;2530;47.990;7.866;2023-07-20T02:44:02;19.30;99.90
5023;DHT22;2530;47.990;7.866;2023-07-20T02:46:29;19.20;99.90
5023;DHT22;2530;47.990;7.866;2023-07-20T02:48:55;19.10;99.90
5023;DHT22;2530;47.990;7.866;2023-07-20T02:51:21;19.10;99.90
5023;DHT22;2530;47.990;7.866;2023-07-20T02:53:46;19.10;99.90
5023;DHT22;2530;47.990;7.866;2023-07-20T02:56:12;19.10;99.90
5023;DHT22;2530;47.990;7.866;2023-07-20T02:58:41;19.00;99.90
5023;DHT22;2530;47.990;7.866;2023-07-20T03:01:09;19.50;99.90
5023;DHT22;2530;47.990;7.866;2023-07-20T03:03:35;18.90;99.90
5023;DHT22;2530;47.990;7.866;2023-07-20T03:06:04;18.80;99.90
5023;DHT22;2530;47.990;7.866;2023-07-20T03:08:30;18.80;99.90
5023;DHT22;2530;47.990;7.866;2023-07-20T03:10:55;18.90;99.90
5023;DHT22;2530;47.990;7.866;2023-07-20T03:13:21;18.80;99.90
5023;DHT22;2530;47.990;7.866;2023-07-20T03:15:46;18.70;99.90
5023;DHT22;2530;47.990;7.866;2023-07-20T03:18:12;18.70;99.90
5023;DHT22;2530;47.990;7.866;2023-07-20T03:20:39;19.40;99.90
5023;DHT22;2530;47.990;7.866;2023-07-20T03:23:04;18.70;99.90
5023;DHT22;2530;47.990;7.866;2023-07-20T03:25:30;18.60;99.90
5023;DHT22;2530;47.990;7.866;2023-07-20T03:27:55;18.60;99.90
5023;DHT22;2530;47.990;7.866;2023-07-20T03:30:21;18.50;99.90
5023;DHT22;2530;47.990;7.866;2023-07-20T03:32:46;18.50;99.90
5023;DHT22;2530;47.990;7.866;2023-07-20T03:35:12;18.60;99.90
5023;DHT22;2530;47.990;7.866;2023-07-20T03:37:38;18.60;99.90
5023;DHT22;2530;47.990;7.866;2023-07-20T03:40:04;18.60;99.90
5023;DHT22;2530;47.990;7.866;2023-07-20T03:42:30;18.50;99.90
5023;DHT22;2530;47.990;7.866;2023-07-20T03:44:56;18.40;99.90
5023;DHT22;2530;47.990;7.866;2023-07-20T03:47:21;18.50;99.90
5023;DHT22;2530;47.990;7.866;2023-07-20T03:49:47;18.50;99.90
5023;DHT22;2530;47.990;7.866;2023-07-20T03:52:13;18.40;99.90
5023;DHT22;2530;47.990;7.866;2023-07-20T03:54:38;18.40;99.90
5023;DHT22;2530;47.990;7.866;2023-07-20T03:57:04;18.50;99.90
5023;DHT22;2530;47.990;7.866;2023-07-20T03:59:29;18.50;99.90
5023;DHT22;2530;47.990;7.866;2023-07-20T04:01:55;18.60;99.90
5023;DHT22;2530;47.990;7.866;2023-07-20T04:04:21;18.50;99.90
5023;DHT22;2530;47.990;7.866;2023-07-20T04:06:46;18.60;99.90
5023;DHT22;2530;47.990;7.866;2023-07-20T04:09:12;18.70;99.90
5023;DHT22;2530;47.990;7.866;2023-07-20T04:11:38;18.60;99.90
5023;DHT22;2530;47.990;7.866;2023-07-20T04:14:04;18.60;99.90
5023;DHT22;2530;47.990;7.866;2023-07-20T04:16:29;18.60;99.90
5023;DHT22;2530;47.990;7.866;2023-07-20T04:18:55;18.60;99.90
5023;DHT22;2530;47.990;7.866;2023-07-20T04:21:21;18.80;99.90
5023;DHT22;2530;47.990;7.866;2023-07-20T04:23:47;18.50;99.90
5023;DHT22;2530;47.990;7.866;2023-07-20T04:26:13;18.50;99.90
5023;DHT22;2530;47.990;7.866;2023-07-20T04:28:42;18.60;99.90
5023;DHT22;2530;47.990;7.866;2023-07-20T04:31:13;18.60;99.90
5023;DHT22;2530;47.990;7.866;2023-07-20T04:33:39;18.60;99.90
5023;DHT22;2530;47.990;7.866;2023-07-20T04:36:05;18.60;99.90
5023;DHT22;2530;47.990;7.866;2023-07-20T04:38:30;18.40;99.90
5023;DHT22;2530;47.990;7.866;2023-07-20T04:40:56;18.50;99.90
5023;DHT22;2530;47.990;7.866;2023-07-20T04:43:21;19.30;99.90
5023;DHT22;2530;47.990;7.866;2023-07-20T04:45:47;18.50;99.90
5023;DHT22;2530;47.990;7.866;2023-07-20T04:48:14;18.60;99.90
5023;DHT22;2530;47.990;7.866;2023-07-20T04:50:41;18.30;99.90
5023;DHT22;2530;47.990;7.866;2023-07-20T04:53:10;18.60;99.90
5023;DHT22;2530;47.990;7.866;2023-07-20T04:55:37;18.60;99.90
5023;DHT22;2530;47.990;7.866;2023-07-20T04:58:03;18.60;99.90
5023;DHT22;2530;47.990;7.866;2023-07-20T05:00:30;18.80;99.90
5023;DHT22;2530;47.990;7.866;2023-07-20T05:02:56;18.50;99.90
5023;DHT22;2530;47.990;7.866;2023-07-20T05:05:22;18.50;99.90
5023;DHT22;2530;47.990;7.866;2023-07-20T05:07:48;18.50;99.90
5023;DHT22;2530;47.990;7.866;2023-07-20T05:10:13;18.60;99.90
5023;DHT22;2530;47.990;7.866;2023-07-20T05:12:39;18.70;99.90
5023;DHT22;2530;47.990;7.866;2023-07-20T05:15:05;18.50;99.90
5023;DHT22;2530;47.990;7.866;2023-07-20T05:17:39;18.40;99.90
5023;DHT22;2530;47.990;7.866;2023-07-20T05:20:06;18.60;99.90
5023;DHT22;2530;47.990;7.866;2023-07-20T05:22:35;18.40;99.90
5023;DHT22;2530;47.990;7.866;2023-07-20T05:25:00;19.00;99.90
5023;DHT22;2530;47.990;7.866;2023-07-20T05:27:29;18.40;99.90
5023;DHT22;2530;47.990;7.866;2023-07-20T05:30:07;18.00;99.90
5023;DHT22;2530;47.990;7.866;2023-07-20T05:32:41;18.70;99.90
5023;DHT22;2530;47.990;7.866;2023-07-20T05:35:12;20.70;99.90
5023;DHT22;2530;47.990;7.866;2023-07-20T05:37:38;18.70;99.90
5023;DHT22;2530;47.990;7.866;2023-07-20T05:40:09;19.20;99.90
5023;DHT22;2530;47.990;7.866;2023-07-20T05:42:43;18.70;99.90
5023;DHT22;2530;47.990;7.866;2023-07-20T05:45:09;19.50;99.90
5023;DHT22;2530;47.990;7.866;2023-07-20T05:47:41;18.80;99.90
5023;DHT22;2530;47.990;7.866;2023-07-20T05:50:10;18.90;99.90
5023;DHT22;2530;47.990;7.866;2023-07-20T05:52:36;18.30;99.90
5023;DHT22;2530;47.990;7.866;2023-07-20T05:55:09;20.10;99.90
5023;DHT22;2530;47.990;7.866;2023-07-20T05:57:35;19.30;99.90
5023;DHT22;2530;47.990;7.866;2023-07-20T06:00:18;19.40;99.90
5023;DHT22;2530;47.990;7.866;2023-07-20T06:02:52;19.20;99.90
5023;DHT22;2530;47.990;7.866;2023-07-20T06:05:22;19.70;99.90
5023;DHT22;2530;47.990;7.866;2023-07-20T06:07:51;21.00;99.90
5023;DHT22;2530;47.990;7.866;2023-07-20T06:10:22;19.10;99.90
5023;DHT22;2530;47.990;7.866;2023-07-20T06:12:51;19.50;99.90
5023;DHT22;2530;47.990;7.866;2023-07-20T06:15:44;21.90;99.90
5023;DHT22;2530;47.990;7.866;2023-07-20T06:18:13;19.50;99.90
5023;DHT22;2530;47.990;7.866;2023-07-20T06:20:48;21.30;99.90
5023;DHT22;2530;47.990;7.866;2023-07-20T06:23:13;19.70;99.90
5023;DHT22;2530;47.990;7.866;2023-07-20T06:25:42;20.90;99.90
5023;DHT22;2530;47.990;7.866;2023-07-20T06:28:24;19.80;99.90
5023;DHT22;2530;47.990;7.866;2023-07-20T06:31:00;19.90;99.90
5023;DHT22;2530;47.990;7.866;2023-07-20T06:33:29;20.50;99.90
5023;DHT22;2530;47.990;7.866;2023-07-20T06:35:58;20.70;99.90
5023;DHT22;2530;47.990;7.866;2023-07-20T06:38:26;20.40;99.90
5023;DHT22;2530;47.990;7.866;2023-07-20T06:40:52;19.90;99.90
5023;DHT22;2530;47.990;7.866;2023-07-20T06:43:18;20.20;99.90
5023;DHT22;2530;47.990;7.866;2023-07-20T06:45:43;19.90;99.90
5023;DHT22;2530;47.990;7.866;2023-07-20T06:48:09;20.10;99.90
5023;DHT22;2530;47.990;7.866;2023-07-20T06:50:35;20.20;99.90
5023;DHT22;2530;47.990;7.866;2023-07-20T06:53:00;20.30;99.90
5023;DHT22;2530;47.990;7.866;2023-07-20T06:55:28;20.30;99.90
5023;DHT22;2530;47.990;7.866;2023-07-20T06:57:54;20.90;99.90
5023;DHT22;2530;47.990;7.866;2023-07-20T07:00:19;20.40;99.90
5023;DHT22;2530;47.990;7.866;2023-07-20T07:02:45;20.50;99.90
5023;DHT22;2530;47.990;7.866;2023-07-20T07:05:11;22.70;99.90
5023;DHT22;2530;47.990;7.866;2023-07-20T07:07:38;20.70;99.90
5023;DHT22;2530;47.990;7.866;2023-07-20T07:10:04;20.70;99.90
5023;DHT22;2530;47.990;7.866;2023-07-20T07:12:30;20.90;99.90
5023;DHT22;2530;47.990;7.866;2023-07-20T07:14:56;23.70;99.90
5023;DHT22;2530;47.990;7.866;2023-07-20T07:17:21;20.90;99.90
5023;DHT22;2530;47.990;7.866;2023-07-20T07:19:47;22.50;99.90
5023;DHT22;2530;47.990;7.866;2023-07-20T07:22:13;20.50;99.90
5023;DHT22;2530;47.990;7.866;2023-07-20T07:24:39;21.00;99.90
5023;DHT22;2530;47.990;7.866;2023-07-20T07:27:08;20.90;99.90
5023;DHT22;2530;47.990;7.866;2023-07-20T07:29:34;20.90;99.90
5023;DHT22;2530;47.990;7.866;2023-07-20T07:32:00;20.90;99.90
5023;DHT22;2530;47.990;7.866;2023-07-20T07:34:27;20.90;99.90
5023;DHT22;2530;47.990;7.866;2023-07-20T07:36:52;21.00;99.90
5023;DHT22;2530;47.990;7.866;2023-07-20T07:39:18;20.80;99.90
5023;DHT22;2530;47.990;7.866;2023-07-20T07:41:43;21.00;99.90
5023;DHT22;2530;47.990;7.866;2023-07-20T07:44:09;20.70;99.90
5023;DHT22;2530;47.990;7.866;2023-07-20T07:46:34;20.80;99.90
5023;DHT22;2530;47.990;7.866;2023-07-20T07:49:00;20.90;99.90
5023;DHT22;2530;47.990;7.866;2023-07-20T07:51:25;20.90;99.90
5023;DHT22;2530;47.990;7.866;2023-07-20T07:53:52;20.80;99.90
5023;DHT22;2530;47.990;7.866;2023-07-20T07:56:18;20.70;99.90
5023;DHT22;2530;47.990;7.866;2023-07-20T07:58:48;20.80;99.90
5023;DHT22;2530;47.990;7.866;2023-07-20T08:01:14;20.70;99.90
5023;DHT22;2530;47.990;7.866;2023-07-20T08:03:40;20.90;99.90
5023;DHT22;2530;47.990;7.866;2023-07-20T08:06:05;20.70;99.90
5023;DHT22;2530;47.990;7.866;2023-07-20T08:08:32;20.80;99.90
5023;DHT22;2530;47.990;7.866;2023-07-20T08:10:58;20.90;99.90
5023;DHT22;2530;47.990;7.866;2023-07-20T08:13:24;20.90;99.90
5023;DHT22;2530;47.990;7.866;2023-07-20T08:15:50;20.90;99.90
5023;DHT22;2530;47.990;7.866;2023-07-20T08:18:19;21.30;99.90
5023;DHT22;2530;47.990;7.866;2023-07-20T08:20:45;21.30;99.90
5023;DHT22;2530;47.990;7.866;2023-07-20T08:23:11;21.50;99.90
5023;DHT22;2530;47.990;7.866;2023-07-20T08:25:37;21.60;99.90
5023;DHT22;2530;47.990;7.866;2023-07-20T08:28:05;23.00;99.90
5023;DHT22;2530;47.990;7.866;2023-07-20T08:30:43;21.40;99.90
5023;DHT22;2530;47.990;7.866;2023-07-20T08:33:13;21.60;99.90
5023;DHT22;2530;47.990;7.866;2023-07-20T08:35:39;21.60;99.90
5023;DHT22;2530;47.990;7.866;2023-07-20T08:38:04;21.50;99.90
5023;DHT22;2530;47.990;7.866;2023-07-20T08:40:31;21.30;99.90
5023;DHT22;2530;47.990;7.866;2023-07-20T08:42:58;22.90;99.90
5023;DHT22;2530;47.990;7.866;2023-07-20T08:45:27;22.40;99.90
5023;DHT22;2530;47.990;7.866;2023-07-20T08:47:58;22.30;99.90
5023;DHT22;2530;47.990;7.866;2023-07-20T08:50:26;22.50;99.90
5023;DHT22;2530;47.990;7.866;2023-07-20T08:52:52;21.40;99.90
5023;DHT22;2530;47.990;7.866;2023-07-20T08:55:20;21.40;99.90
5023;DHT22;2530;47.990;7.866;2023-07-20T08:57:50;21.40;99.90
5023;DHT22;2530;47.990;7.866;2023-07-20T09:00:19;21.70;99.90
5023;DHT22;2530;47.990;7.866;2023-07-20T09:02:46;21.50;99.90
5023;DHT22;2530;47.990;7.866;2023-07-20T09:05:12;21.60;99.90
5023;DHT22;2530;47.990;7.866;2023-07-20T09:07:40;21.60;99.90
5023;DHT22;2530;47.990;7.866;2023-07-20T09:10:07;22.60;99.90
5023;DHT22;2530;47.990;7.866;2023-07-20T09:12:37;21.80;99.90
5023;DHT22;2530;47.990;7.866;2023-07-20T09:15:04;21.90;99.90
5023;DHT22;2530;47.990;7.866;2023-07-20T09:17:29;21.70;99.90
5023;DHT22;2530;47.990;7.866;2023-07-20T09:19:55;21.80;99.90
5023;DHT22;2530;47.990;7.866;2023-07-20T09:22:20;22.00;99.90
5023;DHT22;2530;47.990;7.866;2023-07-20T09:24:46;22.10;99.90
5023;DHT22;2530;47.990;7.866;2023-07-20T09:27:11;22.50;99.90
5023;DHT22;2530;47.990;7.866;2023-07-20T09:29:53;22.10;99.90
5023;DHT22;2530;47.990;7.866;2023-07-20T09:32:19;22.10;99.90
5023;DHT22;2530;47.990;7.866;2023-07-20T09:34:46;22.20;99.90
5023;DHT22;2530;47.990;7.866;2023-07-20T09:37:11;22.30;99.90
5023;DHT22;2530;47.990;7.866;2023-07-20T09:39:44;22.00;99.90
5023;DHT22;2530;47.990;7.866;2023-07-20T09:42:11;21.40;99.90
5023;DHT22;2530;47.990;7.866;2023-07-20T09:44:39;23.60;99.90
5023;DHT22;2530;47.990;7.866;2023-07-20T09:47:05;22.20;99.90
5023;DHT22;2530;47.990;7.866;2023-07-20T09:49:30;22.20;99.90
5023;DHT22;2530;47.990;7.866;2023-07-20T09:51:58;22.30;99.90
5023;DHT22;2530;47.990;7.866;2023-07-20T09:54:26;22.40;99.90
5023;DHT22;2530;47.990;7.866;2023-07-20T09:56:52;22.70;99.90
5023;DHT22;2530;47.990;7.866;2023-07-20T09:59:18;22.40;99.90
5023;DHT22;2530;47.990;7.866;2023-07-20T10:01:45;22.70;99.90
5023;DHT22;2530;47.990;7.866;2023-07-20T10:04:16;22.70;99.90
5023;DHT22;2530;47.990;7.866;2023-07-20T10:06:46;22.60;99.90
5023;DHT22;2530;47.990;7.866;2023-07-20T10:09:15;22.60;99.90
5023;DHT22;2530;47.990;7.866;2023-07-20T10:11:49;22.90;99.90
5023;DHT22;2530;47.990;7.866;2023-07-20T10:14:19;23.00;99.90
5023;DHT22;2530;47.990;7.866;2023-07-20T10:16:54;23.00;99.90
5023;DHT22;2530;47.990;7.866;2023-07-20T10:19:27;22.50;99.90
5023;DHT22;2530;47.990;7.866;2023-07-20T10:22:00;22.90;99.90
5023;DHT22;2530;47.990;7.866;2023-07-20T10:24:28;23.00;99.90
5023;DHT22;2530;47.990;7.866;2023-07-20T10:26:55;23.40;99.90
5023;DHT22;2530;47.990;7.866;2023-07-20T10:29:21;23.20;99.90
5023;DHT22;2530;47.990;7.866;2023-07-20T10:31:48;23.10;99.90
5023;DHT22;2530;47.990;7.866;2023-07-20T10:34:14;23.40;99.90
5023;DHT22;2530;47.990;7.866;2023-07-20T10:36:46;23.50;99.90
5023;DHT22;2530;47.990;7.866;2023-07-20T10:39:26;23.80;99.90
5023;DHT22;2530;47.990;7.866;2023-07-20T10:42:09;23.30;99.90
5023;DHT22;2530;47.990;7.866;2023-07-20T10:44:37;23.30;99.90
5023;DHT22;2530;47.990;7.866;2023-07-20T10:47:08;23.40;99.90
5023;DHT22;2530;47.990;7.866;2023-07-20T10:49:34;23.60;99.90
5023;DHT22;2530;47.990;7.866;2023-07-20T10:52:04;23.90;99.90
5023;DHT22;2530;47.990;7.866;2023-07-20T10:57:23;24.10;99.90
5023;DHT22;2530;47.990;7.866;2023-07-20T10:59:48;23.80;99.90
5023;DHT22;2530;47.990;7.866;2023-07-20T11:02:18;23.90;99.90
5023;DHT22;2530;47.990;7.866;2023-07-20T11:04:45;24.30;99.90
5023;DHT22;2530;47.990;7.866;2023-07-20T11:07:15;24.10;99.90
5023;DHT22;2530;47.990;7.866;2023-07-20T11:09:42;24.00;99.90
5023;DHT22;2530;47.990;7.866;2023-07-20T11:12:12;23.90;99.90
5023;DHT22;2530;47.990;7.866;2023-07-20T11:14:43;23.80;99.90
5023;DHT22;2530;47.990;7.866;2023-07-20T11:17:15;23.90;99.90
5023;DHT22;2530;47.990;7.866;2023-07-20T11:19:48;23.40;99.90
5023;DHT22;2530;47.990;7.866;2023-07-20T11:22:16;23.80;99.90
5023;DHT22;2530;47.990;7.866;2023-07-20T11:24:42;24.70;99.90
5023;DHT22;2530;47.990;7.866;2023-07-20T11:27:08;25.00;99.90
5023;DHT22;2530;47.990;7.866;2023-07-20T11:29:34;25.40;99.90
5023;DHT22;2530;47.990;7.866;2023-07-20T11:32:01;25.50;99.90
5023;DHT22;2530;47.990;7.866;2023-07-20T11:34:30;25.20;99.90
5023;DHT22;2530;47.990;7.866;2023-07-20T11:36:56;24.60;99.90
5023;DHT22;2530;47.990;7.866;2023-07-20T11:39:22;24.40;99.90
5023;DHT22;2530;47.990;7.866;2023-07-20T11:41:55;24.50;99.90
5023;DHT22;2530;47.990;7.866;2023-07-20T11:44:23;25.30;99.90
5023;DHT22;2530;47.990;7.866;2023-07-20T11:47:02;25.50;99.90
5023;DHT22;2530;47.990;7.866;2023-07-20T11:49:29;25.50;99.90
5023;DHT22;2530;47.990;7.866;2023-07-20T11:51:55;26.90;99.90
5023;DHT22;2530;47.990;7.866;2023-07-20T11:54:22;27.20;99.90
5023;DHT22;2530;47.990;7.866;2023-07-20T11:56:48;27.40;99.90
5023;DHT22;2530;47.990;7.866;2023-07-20T11:59:13;27.50;99.90
5023;DHT22;2530;47.990;7.866;2023-07-20T12:01:39;27.30;99.90
5023;DHT22;2530;47.990;7.866;2023-07-20T12:04:05;27.60;99.90
5023;DHT22;2530;47.990;7.866;2023-07-20T12:06:32;27.10;99.90
5023;DHT22;2530;47.990;7.866;2023-07-20T12:08:58;27.60;99.90
5023;DHT22;2530;47.990;7.866;2023-07-20T12:11:50;27.30;99.90
5023;DHT22;2530;47.990;7.866;2023-07-20T12:14:16;28.30;99.90
5023;DHT22;2530;47.990;7.866;2023-07-20T12:16:42;27.60;99.90
5023;DHT22;2530;47.990;7.866;2023-07-20T12:19:10;26.90;99.90
5023;DHT22;2530;47.990;7.866;2023-07-20T12:21:36;27.10;99.90
5023;DHT22;2530;47.990;7.866;2023-07-20T12:24:03;27.20;99.90
5023;DHT22;2530;47.990;7.866;2023-07-20T12:26:30;26.90;99.90
5023;DHT22;2530;47.990;7.866;2023-07-20T12:28:56;27.40;99.90
5023;DHT22;2530;47.990;7.866;2023-07-20T12:31:23;27.20;99.90
5023;DHT22;2530;47.990;7.866;2023-07-20T12:33:50;27.00;99.90
5023;DHT22;2530;47.990;7.866;2023-07-20T12:36:16;27.10;99.90
5023;DHT22;2530;47.990;7.866;2023-07-20T12:38:41;27.60;99.90
5023;DHT22;2530;47.990;7.866;2023-07-20T12:41:09;28.20;99.90
5023;DHT22;2530;47.990;7.866;2023-07-20T12:43:35;28.30;99.90
5023;DHT22;2530;47.990;7.866;2023-07-20T12:46:01;27.30;99.90
5023;DHT22;2530;47.990;7.866;2023-07-20T12:48:26;26.80;99.90
5023;DHT22;2530;47.990;7.866;2023-07-20T12:50:52;27.80;99.90
5023;DHT22;2530;47.990;7.866;2023-07-20T12:53:17;27.90;99.90
5023;DHT22;2530;47.990;7.866;2023-07-20T12:55:43;27.90;99.90
5023;DHT22;2530;47.990;7.866;2023-07-20T12:58:09;27.30;99.90
5023;DHT22;2530;47.990;7.866;2023-07-20T13:00:35;27.80;99.90
5023;DHT22;2530;47.990;7.866;2023-07-20T13:03:01;28.10;99.90
5023;DHT22;2530;47.990;7.866;2023-07-20T13:05:30;28.20;99.90
5023;DHT22;2530;47.990;7.866;2023-07-20T13:07:57;28.30;99.90
5023;DHT22;2530;47.990;7.866;2023-07-20T13:10:23;26.90;99.90
5023;DHT22;2530;47.990;7.866;2023-07-20T13:12:49;27.00;99.90
5023;DHT22;2530;47.990;7.866;2023-07-20T13:15:14;26.80;99.90
5023;DHT22;2530;47.990;7.866;2023-07-20T13:17:40;26.40;99.90
5023;DHT22;2530;47.990;7.866;2023-07-20T13:20:07;26.90;99.90
5023;DHT22;2530;47.990;7.866;2023-07-20T13:22:35;27.50;99.90
5023;DHT22;2530;47.990;7.866;2023-07-20T13:25:01;27.90;99.90
5023;DHT22;2530;47.990;7.866;2023-07-20T13:27:27;27.60;99.90
5023;DHT22;2530;47.990;7.866;2023-07-20T13:29:53;26.50;99.90
5023;DHT22;2530;47.990;7.866;2023-07-20T13:32:18;26.10;99.90
5023;DHT22;2530;47.990;7.866;2023-07-20T13:34:45;26.50;99.90
5023;DHT22;2530;47.990;7.866;2023-07-20T13:37:10;26.70;99.90
5023;DHT22;2530;47.990;7.866;2023-07-20T13:39:36;26.90;99.90
5023;DHT22;2530;47.990;7.866;2023-07-20T13:42:02;27.50;99.90
5023;DHT22;2530;47.990;7.866;2023-07-20T13:44:33;27.10;99.90
5023;DHT22;2530;47.990;7.866;2023-07-20T13:47:00;27.60;99.90
5023;DHT22;2530;47.990;7.866;2023-07-20T13:49:25;28.00;99.90
5023;DHT22;2530;47.990;7.866;2023-07-20T13:51:51;28.50;99.90
5023;DHT22;2530;47.990;7.866;2023-07-20T13:54:16;28.40;99.90
5023;DHT22;2530;47.990;7.866;2023-07-20T13:56:42;27.60;99.90
5023;DHT22;2530;47.990;7.866;2023-07-20T13:59:07;27.80;99.90
5023;DHT22;2530;47.990;7.866;2023-07-20T14:01:33;27.60;99.90
5023;DHT22;2530;47.990;7.866;2023-07-20T14:03:59;27.00;99.90
5023;DHT22;2530;47.990;7.866;2023-07-20T14:06:25;26.70;99.90
5023;DHT22;2530;47.990;7.866;2023-07-20T14:08:51;26.80;99.90
5023;DHT22;2530;47.990;7.866;2023-07-20T14:11:18;27.20;99.90
5023;DHT22;2530;47.990;7.866;2023-07-20T14:13:44;27.60;99.90
5023;DHT22;2530;47.990;7.866;2023-07-20T14:16:09;27.90;99.90
5023;DHT22;2530;47.990;7.866;2023-07-20T14:18:35;27.80;99.90
5023;DHT22;2530;47.990;7.866;2023-07-20T14:21:00;27.30;99.90
5023;DHT22;2530;47.990;7.866;2023-07-20T14:23:28;27.10;99.90
5023;DHT22;2530;47.990;7.866;2023-07-20T14:25:54;27.30;99.90
5023;DHT22;2530;47.990;7.866;2023-07-20T14:28:20;27.40;99.90
5023;DHT22;2530;47.990;7.866;2023-07-20T14:30:46;27.70;99.90
5023;DHT22;2530;47.990;7.866;2023-07-20T14:33:12;28.10;99.90
5023;DHT22;2530;47.990;7.866;2023-07-20T14:35:37;27.70;99.90
5023;DHT22;2530;47.990;7.866;2023-07-20T14:38:03;27.50;99.90
5023;DHT22;2530;47.990;7.866;2023-07-20T14:40:29;28.00;99.90
5023;DHT22;2530;47.990;7.866;2023-07-20T14:42:58;28.00;99.90
5023;DHT22;2530;47.990;7.866;2023-07-20T14:45:27;28.30;99.90
5023;DHT22;2530;47.990;7.866;2023-07-20T14:47:52;28.00;99.90
5023;DHT22;2530;47.990;7.866;2023-07-20T14:50:20;27.80;99.90
5023;DHT22;2530;47.990;7.866;2023-07-20T14:52:46;27.90;99.90
5023;DHT22;2530;47.990;7.866;2023-07-20T14:55:12;28.10;99.90
5023;DHT22;2530;47.990;7.866;2023-07-20T14:57:38;27.60;99.90
5023;DHT22;2530;47.990;7.866;2023-07-20T15:00:04;27.90;99.90
5023;DHT22;2530;47.990;7.866;2023-07-20T15:02:38;27.70;99.90
5023;DHT22;2530;47.990;7.866;2023-07-20T15:05:08;27.60;99.90
5023;DHT22;2530;47.990;7.866;2023-07-20T15:07:34;26.70;99.90
5023;DHT22;2530;47.990;7.866;2023-07-20T15:10:01;26.40;99.90
5023;DHT22;2530;47.990;7.866;2023-07-20T15:12:26;26.80;99.90
5023;DHT22;2530;47.990;7.866;2023-07-20T15:15:04;27.00;99.90
5023;DHT22;2530;47.990;7.866;2023-07-20T15:17:30;27.50;99.90
5023;DHT22;2530;47.990;7.866;2023-07-20T15:19:56;27.80;99.90
5023;DHT22;2530;47.990;7.866;2023-07-20T15:22:21;27.80;99.90
5023;DHT22;2530;47.990;7.866;2023-07-20T15:24:47;28.10;99.90
5023;DHT22;2530;47.990;7.866;2023-07-20T15:27:13;28.20;99.90
5023;DHT22;2530;47.990;7.866;2023-07-20T15:29:38;28.10;99.90
5023;DHT22;2530;47.990;7.866;2023-07-20T15:32:04;27.90;99.90
5023;DHT22;2530;47.990;7.866;2023-07-20T15:34:31;27.90;99.90
5023;DHT22;2530;47.990;7.866;2023-07-20T15:36:57;28.20;99.90
5023;DHT22;2530;47.990;7.866;2023-07-20T15:39:22;28.70;99.90
5023;DHT22;2530;47.990;7.866;2023-07-20T15:41:49;29.00;99.90
5023;DHT22;2530;47.990;7.866;2023-07-20T15:44:14;29.10;99.90
5023;DHT22;2530;47.990;7.866;2023-07-20T15:49:06;28.60;99.90
5023;DHT22;2530;47.990;7.866;2023-07-20T15:51:33;28.10;99.90
5023;DHT22;2530;47.990;7.866;2023-07-20T15:53:59;27.90;99.90
5023;DHT22;2530;47.990;7.866;2023-07-20T15:56:24;27.90;99.90
5023;DHT22;2530;47.990;7.866;2023-07-20T15:58:50;27.20;99.90
5023;DHT22;2530;47.990;7.866;2023-07-20T16:01:15;27.40;99.90
5023;DHT22;2530;47.990;7.866;2023-07-20T16:03:41;27.70;99.90
5023;DHT22;2530;47.990;7.866;2023-07-20T16:06:07;28.00;99.90
5023;DHT22;2530;47.990;7.866;2023-07-20T16:08:33;28.10;99.90
5023;DHT22;2530;47.990;7.866;2023-07-20T16:10:59;28.40;99.90
5023;DHT22;2530;47.990;7.866;2023-07-20T16:13:25;28.50;99.90
5023;DHT22;2530;47.990;7.866;2023-07-20T16:15:50;28.20;99.90
5023;DHT22;2530;47.990;7.866;2023-07-20T16:18:16;28.00;99.90